sensor_id;sensor_type;location;lat;lon;timestamp;temperature;humidity
25640;DHT22;13497;48.322;16.204;2023-06-14T00:00:19;12.30;99.90
25640;DHT22;13497;48.322;16.204;2023-06-14T00:02:45;12.30;99.90
25640;DHT22;13497;48.322;16.204;2023-06-14T00:05:11;12.30;99.90
25640;DHT22;13497;48.322;16.204;2023-06-14T00:07:41;12.40;99.90
25640;DHT22;13497;48.322;16.204;2023-06-14T00:10:14;12.50;99.90
25640;DHT22;13497;48.322;16.204;2023-06-14T00:12:40;12.60;99.90
25640;DHT22;13497;48.322;16.204;2023-06-14T00:15:07;12.70;99.90
25640;DHT22;13497;48.322;16.204;2023-06-14T00:17:35;12.70;99.90
25640;DHT22;13497;48.322;16.204;2023-06-14T00:20:02;12.60;99.90
25640;DHT22;13497;48.322;16.204;2023-06-14T00:22:29;12.60;99.90
25640;DHT22;13497;48.322;16.204;2023-06-14T00:24:56;12.50;99.90
25640;DHT22;13497;48.322;16.204;2023-06-14T00:27:22;12.50;99.90
25640;DHT22;13497;48.322;16.204;2023-06-14T00:29:47;12.40;99.90
25640;DHT22;13497;48.322;16.204;2023-06-14T00:32:13;12.40;99.90
25640;DHT22;13497;48.322;16.204;2023-06-14T00:34:38;12.50;99.90
25640;DHT22;13497;48.322;16.204;2023-06-14T00:37:04;12.50;99.90
25640;DHT22;13497;48.322;16.204;2023-06-14T00:39:30;12.50;99.90
25640;DHT22;13497;48.322;16.204;2023-06-14T00:41:56;12.60;99.90
25640;DHT22;13497;48.322;16.204;2023-06-14T00:44:23;12.60;99.90
25640;DHT22;13497;48.322;16.204;2023-06-14T00:46:49;12.70;99.90
25640;DHT22;13497;48.322;16.204;2023-06-14T00:49:15;12.70;99.90
25640;DHT22;13497;48.322;16.204;2023-06-14T00:51:42;12.70;99.90
25640;DHT22;13497;48.322;16.204;2023-06-14T00:54:08;12.70;99.90
25640;DHT22;13497;48.322;16.204;2023-06-14T00:56:37;12.80;99.90
25640;DHT22;13497;48.322;16.204;2023-06-14T00:59:04;12.70;99.90
25640;DHT22;13497;48.322;16.204;2023-06-14T01:01:30;12.80;99.90
25640;DHT22;13497;48.322;16.204;2023-06-14T01:03:58;12.70;99.90
25640;DHT22;13497;48.322;16.204;2023-06-14T01:06:35;12.60;99.90
25640;DHT22;13497;48.322;16.204;2023-06-14T01:09:18;12.50;99.90
25640;DHT22;13497;48.322;16.204;2023-06-14T01:12:15;12.50;99.90
25640;DHT22;13497;48.322;16.204;2023-06-14T01:14:42;12.40;99.90
25640;DHT22;13497;48.322;16.204;2023-06-14T01:17:10;12.30;99.90
25640;DHT22;13497;48.322;16.204;2023-06-14T01:19:42;12.30;99.90
25640;DHT22;13497;48.322;16.204;2023-06-14T01:22:10;12.30;99.90
25640;DHT22;13497;48.322;16.204;2023-06-14T01:24:36;12.30;99.90
25640;DHT22;13497;48.322;16.204;2023-06-14T01:27:05;12.30;99.90
25640;DHT22;13497;48.322;16.204;2023-06-14T01:29:33;12.30;99.90
25640;DHT22;13497;48.322;16.204;2023-06-14T01:32:02;12.20;99.90
25640;DHT22;13497;48.322;16.204;2023-06-14T01:34:28;12.10;99.90
25640;DHT22;13497;48.322;16.204;2023-06-14T01:36:54;12.00;99.90
25640;DHT22;13497;48.322;16.204;2023-06-14T01:39:23;12.00;99.90
25640;DHT22;13497;48.322;16.204;2023-06-14T01:41:49;12.00;99.90
25640;DHT22;13497;48.322;16.204;2023-06-14T01:44:16;11.90;99.90
25640;DHT22;13497;48.322;16.204;2023-06-14T01:46:44;11.90;99.90
25640;DHT22;13497;48.322;16.204;2023-06-14T01:49:11;11.90;99.90
25640;DHT22;13497;48.322;16.204;2023-06-14T01:51:36;11.80;99.90
25640;DHT22;13497;48.322;16.204;2023-06-14T01:54:02;11.80;99.90
25640;DHT22;13497;48.322;16.204;2023-06-14T01:56:28;11.80;99.90
25640;DHT22;13497;48.322;16.204;2023-06-14T01:58:53;11.80;99.90
25640;DHT22;13497;48.322;16.204;2023-06-14T02:01:19;11.90;99.90
25640;DHT22;13497;48.322;16.204;2023-06-14T02:03:47;12.00;99.90
25640;DHT22;13497;48.322;16.204;2023-06-14T02:06:13;12.00;99.90
25640;DHT22;13497;48.322;16.204;2023-06-14T02:08:41;12.10;99.90
25640;DHT22;13497;48.322;16.204;2023-06-14T02:11:07;12.10;99.90
25640;DHT22;13497;48.322;16.204;2023-06-14T02:13:32;12.10;99.90
25640;DHT22;13497;48.322;16.204;2023-06-14T02:15:59;12.10;99.90
25640;DHT22;13497;48.322;16.204;2023-06-14T02:18:25;12.20;99.90
25640;DHT22;13497;48.322;16.204;2023-06-14T02:20:51;12.30;99.90
25640;DHT22;13497;48.322;16.204;2023-06-14T02:23:17;12.40;99.90
25640;DHT22;13497;48.322;16.204;2023-06-14T02:25:43;12.40;99.90
25640;DHT22;13497;48.322;16.204;2023-06-14T02:28:10;12.40;99.90
25640;DHT22;13497;48.322;16.204;2023-06-14T02:30:36;12.30;99.90
25640;DHT22;13497;48.322;16.204;2023-06-14T02:33:02;12.30;99.90
25640;DHT22;13497;48.322;16.204;2023-06-14T02:35:29;12.30;99.90
25640;DHT22;13497;48.322;16.204;2023-06-14T02:37:55;12.30;99.90
25640;DHT22;13497;48.322;16.204;2023-06-14T02:40:21;12.30;99.90
25640;DHT22;13497;48.322;16.204;2023-06-14T02:42:46;12.30;99.90
25640;DHT22;13497;48.322;16.204;2023-06-14T02:45:12;12.40;99.90
25640;DHT22;13497;48.322;16.204;2023-06-14T02:47:38;12.50;99.90
25640;DHT22;13497;48.322;16.204;2023-06-14T02:50:04;12.60;99.90
25640;DHT22;13497;48.322;16.204;2023-06-14T02:52:29;12.60;99.90
25640;DHT22;13497;48.322;16.204;2023-06-14T02:54:55;12.60;99.90
25640;DHT22;13497;48.322;16.204;2023-06-14T02:57:22;12.70;99.90
25640;DHT22;13497;48.322;16.204;2023-06-14T02:59:47;12.70;99.90
25640;DHT22;13497;48.322;16.204;2023-06-14T03:02:13;12.80;99.90
25640;DHT22;13497;48.322;16.204;2023-06-14T03:04:39;12.90;99.90
25640;DHT22;13497;48.322;16.204;2023-06-14T03:07:05;12.90;99.90
25640;DHT22;13497;48.322;16.204;2023-06-14T03:09:38;12.80;99.90
25640;DHT22;13497;48.322;16.204;2023-06-14T03:12:05;12.70;99.90
25640;DHT22;13497;48.322;16.204;2023-06-14T03:14:35;12.70;99.90
25640;DHT22;13497;48.322;16.204;2023-06-14T03:17:00;12.60;99.90
25640;DHT22;13497;48.322;16.204;2023-06-14T03:19:26;12.60;99.90
25640;DHT22;13497;48.322;16.204;2023-06-14T03:21:52;12.60;99.90
25640;DHT22;13497;48.322;16.204;2023-06-14T03:24:19;12.70;99.90
25640;DHT22;13497;48.322;16.204;2023-06-14T03:26:45;12.70;99.90
25640;DHT22;13497;48.322;16.204;2023-06-14T03:29:11;12.70;99.90
25640;DHT22;13497;48.322;16.204;2023-06-14T03:31:57;12.70;99.90
25640;DHT22;13497;48.322;16.204;2023-06-14T03:34:23;12.90;99.90
25640;DHT22;13497;48.322;16.204;2023-06-14T03:36:49;12.90;99.90
25640;DHT22;13497;48.322;16.204;2023-06-14T03:39:14;13.00;99.90
25640;DHT22;13497;48.322;16.204;2023-06-14T03:41:40;13.00;99.90
25640;DHT22;13497;48.322;16.204;2023-06-14T03:44:06;13.10;99.90
25640;DHT22;13497;48.322;16.204;2023-06-14T03:46:31;13.20;99.90
25640;DHT22;13497;48.322;16.204;2023-06-14T03:48:57;13.30;99.90
25640;DHT22;13497;48.322;16.204;2023-06-14T03:51:23;13.40;99.90
25640;DHT22;13497;48.322;16.204;2023-06-14T03:53:50;13.60;99.90
25640;DHT22;13497;48.322;16.204;2023-06-14T03:56:16;13.80;99.90
25640;DHT22;13497;48.322;16.204;2023-06-14T03:58:41;14.10;99.90
25640;DHT22;13497;48.322;16.204;2023-06-14T04:01:07;14.30;99.90
25640;DHT22;13497;48.322;16.204;2023-06-14T04:03:33;14.40;99.90
25640;DHT22;13497;48.322;16.204;2023-06-14T04:05:59;14.60;99.90
25640;DHT22;13497;48.322;16.204;2023-06-14T04:08:25;14.90;99.90
25640;DHT22;13497;48.322;16.204;2023-06-14T04:10:51;15.30;99.90
25640;DHT22;13497;48.322;16.204;2023-06-14T04:13:17;15.30;99.90
25640;DHT22;13497;48.322;16.204;2023-06-14T04:15:43;15.30;99.90
25640;DHT22;13497;48.322;16.204;2023-06-14T04:18:11;15.40;99.90
25640;DHT22;13497;48.322;16.204;2023-06-14T04:20:36;15.90;99.90
25640;DHT22;13497;48.322;16.204;2023-06-14T04:23:13;16.20;99.90
25640;DHT22;13497;48.322;16.204;2023-06-14T04:25:39;16.20;99.90
25640;DHT22;13497;48.322;16.204;2023-06-14T04:28:06;16.50;99.90
25640;DHT22;13497;48.322;16.204;2023-06-14T04:30:34;17.50;99.90
25640;DHT22;13497;48.322;16.204;2023-06-14T04:33:00;18.60;99.90
25640;DHT22;13497;48.322;16.204;2023-06-14T04:35:26;19.50;99.90
25640;DHT22;13497;48.322;16.204;2023-06-14T04:37:54;19.70;99.90
25640;DHT22;13497;48.322;16.204;2023-06-14T04:40:20;19.30;99.80
25640;DHT22;13497;48.322;16.204;2023-06-14T04:42:46;18.70;99.90
25640;DHT22;13497;48.322;16.204;2023-06-14T04:45:12;18.20;99.90
25640;DHT22;13497;48.322;16.204;2023-06-14T04:47:38;17.30;99.90
25640;DHT22;13497;48.322;16.204;2023-06-14T04:50:04;17.00;99.90
25640;DHT22;13497;48.322;16.204;2023-06-14T04:52:30;16.80;99.90
25640;DHT22;13497;48.322;16.204;2023-06-14T04:54:57;16.60;99.90
25640;DHT22;13497;48.322;16.204;2023-06-14T04:57:23;16.60;99.90
25640;DHT22;13497;48.322;16.204;2023-06-14T04:59:50;16.60;99.90
25640;DHT22;13497;48.322;16.204;2023-06-14T05:02:23;16.80;99.90
25640;DHT22;13497;48.322;16.204;2023-06-14T05:04:49;17.60;99.90
25640;DHT22;13497;48.322;16.204;2023-06-14T05:07:15;18.60;99.90
25640;DHT22;13497;48.322;16.204;2023-06-14T05:09:41;19.70;99.90
25640;DHT22;13497;48.322;16.204;2023-06-14T05:12:07;20.70;98.60
25640;DHT22;13497;48.322;16.204;2023-06-14T05:14:36;21.40;97.20
25640;DHT22;13497;48.322;16.204;2023-06-14T05:17:01;21.60;96.40
25640;DHT22;13497;48.322;16.204;2023-06-14T05:19:28;21.70;96.10
25640;DHT22;13497;48.322;16.204;2023-06-14T05:21:54;21.50;95.60
25640;DHT22;13497;48.322;16.204;2023-06-14T05:24:19;21.50;96.00
25640;DHT22;13497;48.322;16.204;2023-06-14T05:26:47;22.30;94.70
25640;DHT22;13497;48.322;16.204;2023-06-14T05:29:14;22.80;93.70
25640;DHT22;13497;48.322;16.204;2023-06-14T05:31:40;23.20;93.10
25640;DHT22;13497;48.322;16.204;2023-06-14T05:34:05;23.30;92.60
25640;DHT22;13497;48.322;16.204;2023-06-14T05:36:31;23.30;92.70
25640;DHT22;13497;48.322;16.204;2023-06-14T05:38:56;23.80;92.00
25640;DHT22;13497;48.322;16.204;2023-06-14T05:41:27;23.90;91.40
25640;DHT22;13497;48.322;16.204;2023-06-14T05:43:54;23.50;91.80
25640;DHT22;13497;48.322;16.204;2023-06-14T05:46:20;24.00;91.60
25640;DHT22;13497;48.322;16.204;2023-06-14T05:48:50;24.00;91.80
25640;DHT22;13497;48.322;16.204;2023-06-14T05:51:15;24.30;91.60
25640;DHT22;13497;48.322;16.204;2023-06-14T05:53:45;24.70;90.90
25640;DHT22;13497;48.322;16.204;2023-06-14T05:56:11;24.60;91.20
25640;DHT22;13497;48.322;16.204;2023-06-14T05:58:36;24.70;90.90
25640;DHT22;13497;48.322;16.204;2023-06-14T06:01:02;24.30;90.80
25640;DHT22;13497;48.322;16.204;2023-06-14T06:03:28;23.80;91.20
25640;DHT22;13497;48.322;16.204;2023-06-14T06:05:55;24.00;91.20
25640;DHT22;13497;48.322;16.204;2023-06-14T06:08:20;24.10;90.70
25640;DHT22;13497;48.322;16.204;2023-06-14T06:10:46;24.30;90.90
25640;DHT22;13497;48.322;16.204;2023-06-14T06:13:12;24.50;90.90
25640;DHT22;13497;48.322;16.204;2023-06-14T06:15:39;25.00;89.70
25640;DHT22;13497;48.322;16.204;2023-06-14T06:18:05;24.90;87.90
25640;DHT22;13497;48.322;16.204;2023-06-14T06:20:30;24.90;87.80
25640;DHT22;13497;48.322;16.204;2023-06-14T06:23:00;24.90;87.60
25640;DHT22;13497;48.322;16.204;2023-06-14T06:25:26;25.00;87.70
25640;DHT22;13497;48.322;16.204;2023-06-14T06:27:53;25.30;86.60
25640;DHT22;13497;48.322;16.204;2023-06-14T06:30:19;25.50;85.20
25640;DHT22;13497;48.322;16.204;2023-06-14T06:32:45;25.50;84.50
25640;DHT22;13497;48.322;16.204;2023-06-14T06:35:11;25.30;84.80
25640;DHT22;13497;48.322;16.204;2023-06-14T06:37:38;25.10;84.80
25640;DHT22;13497;48.322;16.204;2023-06-14T06:40:04;24.90;84.60
25640;DHT22;13497;48.322;16.204;2023-06-14T06:42:31;23.80;86.40
25640;DHT22;13497;48.322;16.204;2023-06-14T06:44:57;23.70;86.00
25640;DHT22;13497;48.322;16.204;2023-06-14T06:47:23;23.70;86.80
25640;DHT22;13497;48.322;16.204;2023-06-14T06:49:49;23.80;85.90
25640;DHT22;13497;48.322;16.204;2023-06-14T06:52:15;23.30;87.00
25640;DHT22;13497;48.322;16.204;2023-06-14T06:54:41;22.70;88.10
25640;DHT22;13497;48.322;16.204;2023-06-14T06:57:06;21.70;90.30
25640;DHT22;13497;48.322;16.204;2023-06-14T06:59:34;21.10;90.90
25640;DHT22;13497;48.322;16.204;2023-06-14T07:02:00;20.30;91.80
25640;DHT22;13497;48.322;16.204;2023-06-14T07:04:27;19.80;92.80
25640;DHT22;13497;48.322;16.204;2023-06-14T07:06:53;19.50;93.20
25640;DHT22;13497;48.322;16.204;2023-06-14T07:09:18;19.20;93.60
25640;DHT22;13497;48.322;16.204;2023-06-14T07:11:46;18.90;94.30
25640;DHT22;13497;48.322;16.204;2023-06-14T07:14:12;19.00;94.00
25640;DHT22;13497;48.322;16.204;2023-06-14T07:16:38;18.70;94.60
25640;DHT22;13497;48.322;16.204;2023-06-14T07:19:04;18.70;94.80
25640;DHT22;13497;48.322;16.204;2023-06-14T07:21:30;18.80;94.60
25640;DHT22;13497;48.322;16.204;2023-06-14T07:23:56;19.00;94.60
25640;DHT22;13497;48.322;16.204;2023-06-14T07:26:22;19.10;94.50
25640;DHT22;13497;48.322;16.204;2023-06-14T07:28:48;19.20;93.70
25640;DHT22;13497;48.322;16.204;2023-06-14T07:31:15;19.10;94.00
25640;DHT22;13497;48.322;16.204;2023-06-14T07:33:42;19.10;94.40
25640;DHT22;13497;48.322;16.204;2023-06-14T07:36:08;19.10;94.30
25640;DHT22;13497;48.322;16.204;2023-06-14T07:38:34;19.10;94.50
25640;DHT22;13497;48.322;16.204;2023-06-14T07:41:00;19.00;94.60
25640;DHT22;13497;48.322;16.204;2023-06-14T07:43:26;19.20;94.40
25640;DHT22;13497;48.322;16.204;2023-06-14T07:45:52;19.10;94.00
25640;DHT22;13497;48.322;16.204;2023-06-14T07:48:18;19.20;94.10
25640;DHT22;13497;48.322;16.204;2023-06-14T07:50:44;19.20;94.40
25640;DHT22;13497;48.322;16.204;2023-06-14T07:53:10;19.50;94.30
25640;DHT22;13497;48.322;16.204;2023-06-14T07:55:36;19.70;93.90
25640;DHT22;13497;48.322;16.204;2023-06-14T07:58:06;19.90;93.50
25640;DHT22;13497;48.322;16.204;2023-06-14T08:00:32;19.90;92.70
25640;DHT22;13497;48.322;16.204;2023-06-14T08:02:58;19.80;93.40
25640;DHT22;13497;48.322;16.204;2023-06-14T08:05:24;19.70;92.80
25640;DHT22;13497;48.322;16.204;2023-06-14T08:07:50;19.70;93.10
25640;DHT22;13497;48.322;16.204;2023-06-14T08:10:16;19.90;93.60
25640;DHT22;13497;48.322;16.204;2023-06-14T08:12:42;20.00;93.20
25640;DHT22;13497;48.322;16.204;2023-06-14T08:15:09;20.10;93.00
25640;DHT22;13497;48.322;16.204;2023-06-14T08:17:35;20.00;92.90
25640;DHT22;13497;48.322;16.204;2023-06-14T08:20:02;20.10;93.10
25640;DHT22;13497;48.322;16.204;2023-06-14T08:22:29;20.10;92.80
25640;DHT22;13497;48.322;16.204;2023-06-14T08:24:57;20.20;92.80
25640;DHT22;13497;48.322;16.204;2023-06-14T08:27:23;20.20;92.70
25640;DHT22;13497;48.322;16.204;2023-06-14T08:29:49;20.20;92.50
25640;DHT22;13497;48.322;16.204;2023-06-14T08:32:15;20.20;92.30
25640;DHT22;13497;48.322;16.204;2023-06-14T08:34:41;20.30;92.20
25640;DHT22;13497;48.322;16.204;2023-06-14T08:37:06;20.30;92.20
25640;DHT22;13497;48.322;16.204;2023-06-14T08:39:33;20.30;92.00
25640;DHT22;13497;48.322;16.204;2023-06-14T08:42:01;20.30;92.60
25640;DHT22;13497;48.322;16.204;2023-06-14T08:44:27;20.30;92.60
25640;DHT22;13497;48.322;16.204;2023-06-14T08:46:55;20.40;92.90
25640;DHT22;13497;48.322;16.204;2023-06-14T08:49:22;20.60;92.60
25640;DHT22;13497;48.322;16.204;2023-06-14T08:51:59;20.70;92.40
25640;DHT22;13497;48.322;16.204;2023-06-14T08:54:28;21.00;92.40
25640;DHT22;13497;48.322;16.204;2023-06-14T08:57:00;21.00;92.20
25640;DHT22;13497;48.322;16.204;2023-06-14T08:59:28;21.10;91.60
25640;DHT22;13497;48.322;16.204;2023-06-14T09:01:56;21.10;91.60
25640;DHT22;13497;48.322;16.204;2023-06-14T09:04:23;21.10;91.40
25640;DHT22;13497;48.322;16.204;2023-06-14T09:06:50;21.00;91.60
25640;DHT22;13497;48.322;16.204;2023-06-14T09:09:21;21.20;91.50
25640;DHT22;13497;48.322;16.204;2023-06-14T09:11:50;21.40;91.50
25640;DHT22;13497;48.322;16.204;2023-06-14T09:14:15;21.60;90.70
25640;DHT22;13497;48.322;16.204;2023-06-14T09:16:41;21.50;90.90
25640;DHT22;13497;48.322;16.204;2023-06-14T09:19:07;21.60;90.50
25640;DHT22;13497;48.322;16.204;2023-06-14T09:21:35;21.70;90.60
25640;DHT22;13497;48.322;16.204;2023-06-14T09:24:02;21.80;90.10
25640;DHT22;13497;48.322;16.204;2023-06-14T09:26:29;21.90;90.10
25640;DHT22;13497;48.322;16.204;2023-06-14T09:28:55;22.00;89.60
25640;DHT22;13497;48.322;16.204;2023-06-14T09:31:21;22.00;88.80
25640;DHT22;13497;48.322;16.204;2023-06-14T09:33:49;22.00;89.30
25640;DHT22;13497;48.322;16.204;2023-06-14T09:36:16;21.90;87.90
25640;DHT22;13497;48.322;16.204;2023-06-14T09:39:04;21.70;87.00
25640;DHT22;13497;48.322;16.204;2023-06-14T09:41:38;21.60;87.20
25640;DHT22;13497;48.322;16.204;2023-06-14T09:44:07;21.60;88.60
25640;DHT22;13497;48.322;16.204;2023-06-14T09:46:34;21.70;86.50
25640;DHT22;13497;48.322;16.204;2023-06-14T09:49:00;21.70;86.00
25640;DHT22;13497;48.322;16.204;2023-06-14T09:51:28;21.70;85.10
25640;DHT22;13497;48.322;16.204;2023-06-14T09:54:03;21.80;83.40
25640;DHT22;13497;48.322;16.204;2023-06-14T09:56:37;22.00;82.90
25640;DHT22;13497;48.322;16.204;2023-06-14T09:59:05;22.00;82.90
25640;DHT22;13497;48.322;16.204;2023-06-14T10:01:33;21.80;82.40
25640;DHT22;13497;48.322;16.204;2023-06-14T10:04:04;21.90;82.20
25640;DHT22;13497;48.322;16.204;2023-06-14T10:06:32;21.90;82.90
25640;DHT22;13497;48.322;16.204;2023-06-14T10:09:00;22.00;81.80
25640;DHT22;13497;48.322;16.204;2023-06-14T10:11:29;21.80;83.10
25640;DHT22;13497;48.322;16.204;2023-06-14T10:13:55;21.70;83.50
25640;DHT22;13497;48.322;16.204;2023-06-14T10:16:38;21.50;84.30
25640;DHT22;13497;48.322;16.204;2023-06-14T10:19:22;21.60;84.90
25640;DHT22;13497;48.322;16.204;2023-06-14T10:22:11;21.80;84.00
25640;DHT22;13497;48.322;16.204;2023-06-14T10:24:42;22.10;84.40
25640;DHT22;13497;48.322;16.204;2023-06-14T10:27:09;22.50;82.50
25640;DHT22;13497;48.322;16.204;2023-06-14T10:32:18;22.60;82.50
25640;DHT22;13497;48.322;16.204;2023-06-14T10:34:44;22.40;82.70
25640;DHT22;13497;48.322;16.204;2023-06-14T10:37:13;22.10;83.10
25640;DHT22;13497;48.322;16.204;2023-06-14T10:39:40;22.20;83.40
25640;DHT22;13497;48.322;16.204;2023-06-14T10:42:06;22.10;82.30
25640;DHT22;13497;48.322;16.204;2023-06-14T10:44:33;22.20;83.10
25640;DHT22;13497;48.322;16.204;2023-06-14T10:47:00;22.00;82.50
25640;DHT22;13497;48.322;16.204;2023-06-14T10:49:45;21.90;81.70
25640;DHT22;13497;48.322;16.204;2023-06-14T10:52:11;21.60;81.60
25640;DHT22;13497;48.322;16.204;2023-06-14T10:55:10;21.80;81.40
25640;DHT22;13497;48.322;16.204;2023-06-14T10:57:47;22.10;79.60
25640;DHT22;13497;48.322;16.204;2023-06-14T11:00:20;22.30;78.50
25640;DHT22;13497;48.322;16.204;2023-06-14T11:11:06;23.40;81.00
25640;DHT22;13497;48.322;16.204;2023-06-14T11:13:32;23.20;79.20
25640;DHT22;13497;48.322;16.204;2023-06-14T11:15:57;23.10;79.80
25640;DHT22;13497;48.322;16.204;2023-06-14T11:18:24;23.10;80.20
25640;DHT22;13497;48.322;16.204;2023-06-14T11:20:50;22.80;80.20
25640;DHT22;13497;48.322;16.204;2023-06-14T11:23:15;22.80;81.10
25640;DHT22;13497;48.322;16.204;2023-06-14T11:25:41;23.00;80.90
25640;DHT22;13497;48.322;16.204;2023-06-14T11:28:07;23.10;80.10
25640;DHT22;13497;48.322;16.204;2023-06-14T11:30:33;23.30;80.50
25640;DHT22;13497;48.322;16.204;2023-06-14T11:32:59;23.30;80.60
25640;DHT22;13497;48.322;16.204;2023-06-14T11:35:25;23.20;79.80
25640;DHT22;13497;48.322;16.204;2023-06-14T11:37:57;23.20;79.50
25640;DHT22;13497;48.322;16.204;2023-06-14T11:40:24;23.20;80.70
25640;DHT22;13497;48.322;16.204;2023-06-14T11:42:58;23.30;79.40
25640;DHT22;13497;48.322;16.204;2023-06-14T11:45:25;23.50;79.40
25640;DHT22;13497;48.322;16.204;2023-06-14T11:47:50;23.60;78.20
25640;DHT22;13497;48.322;16.204;2023-06-14T11:50:16;23.20;78.80
25640;DHT22;13497;48.322;16.204;2023-06-14T11:52:42;23.00;79.80
25640;DHT22;13497;48.322;16.204;2023-06-14T11:55:08;23.20;78.80
25640;DHT22;13497;48.322;16.204;2023-06-14T11:57:35;23.20;80.30
25640;DHT22;13497;48.322;16.204;2023-06-14T12:00:04;23.10;80.50
25640;DHT22;13497;48.322;16.204;2023-06-14T12:02:37;23.00;81.40
25640;DHT22;13497;48.322;16.204;2023-06-14T12:05:05;23.30;81.30
25640;DHT22;13497;48.322;16.204;2023-06-14T12:07:33;23.50;79.80
25640;DHT22;13497;48.322;16.204;2023-06-14T12:12:25;23.50;79.00
25640;DHT22;13497;48.322;16.204;2023-06-14T12:14:52;23.50;80.10
25640;DHT22;13497;48.322;16.204;2023-06-14T12:17:18;23.70;80.00
25640;DHT22;13497;48.322;16.204;2023-06-14T12:19:46;23.80;80.10
25640;DHT22;13497;48.322;16.204;2023-06-14T12:22:15;23.40;79.40
25640;DHT22;13497;48.322;16.204;2023-06-14T12:24:44;23.60;78.80
25640;DHT22;13497;48.322;16.204;2023-06-14T12:27:10;23.90;78.40
25640;DHT22;13497;48.322;16.204;2023-06-14T12:29:37;23.90;77.10
25640;DHT22;13497;48.322;16.204;2023-06-14T12:32:03;23.70;79.20
25640;DHT22;13497;48.322;16.204;2023-06-14T12:34:29;23.80;79.90
25640;DHT22;13497;48.322;16.204;2023-06-14T12:36:56;23.40;79.30
25640;DHT22;13497;48.322;16.204;2023-06-14T12:39:22;23.40;81.40
25640;DHT22;13497;48.322;16.204;2023-06-14T12:41:49;23.30;79.50
25640;DHT22;13497;48.322;16.204;2023-06-14T12:44:15;23.10;81.20
25640;DHT22;13497;48.322;16.204;2023-06-14T12:46:42;22.80;80.30
25640;DHT22;13497;48.322;16.204;2023-06-14T12:49:12;22.50;79.70
25640;DHT22;13497;48.322;16.204;2023-06-14T12:51:38;22.70;80.10
25640;DHT22;13497;48.322;16.204;2023-06-14T12:54:04;22.70;79.70
25640;DHT22;13497;48.322;16.204;2023-06-14T12:56:30;22.60;80.00
25640;DHT22;13497;48.322;16.204;2023-06-14T12:58:56;22.70;80.20
25640;DHT22;13497;48.322;16.204;2023-06-14T13:01:22;23.00;80.50
25640;DHT22;13497;48.322;16.204;2023-06-14T13:03:49;23.10;80.00
25640;DHT22;13497;48.322;16.204;2023-06-14T13:06:17;23.30;79.20
25640;DHT22;13497;48.322;16.204;2023-06-14T13:08:43;23.50;79.00
25640;DHT22;13497;48.322;16.204;2023-06-14T13:11:09;23.80;79.40
25640;DHT22;13497;48.322;16.204;2023-06-14T13:13:34;24.00;78.60
25640;DHT22;13497;48.322;16.204;2023-06-14T13:16:00;24.00;78.10
25640;DHT22;13497;48.322;16.204;2023-06-14T13:18:26;23.60;79.10
25640;DHT22;13497;48.322;16.204;2023-06-14T13:20:51;22.90;80.40
25640;DHT22;13497;48.322;16.204;2023-06-14T13:23:17;22.70;81.20
25640;DHT22;13497;48.322;16.204;2023-06-14T13:25:43;22.60;80.50
25640;DHT22;13497;48.322;16.204;2023-06-14T13:28:09;22.70;80.30
25640;DHT22;13497;48.322;16.204;2023-06-14T13:30:35;22.70;79.40
25640;DHT22;13497;48.322;16.204;2023-06-14T13:33:01;22.80;78.90
25640;DHT22;13497;48.322;16.204;2023-06-14T13:35:27;22.90;79.30
25640;DHT22;13497;48.322;16.204;2023-06-14T13:37:53;23.00;79.00
25640;DHT22;13497;48.322;16.204;2023-06-14T13:40:18;23.10;78.80
25640;DHT22;13497;48.322;16.204;2023-06-14T13:42:46;23.30;78.60
25640;DHT22;13497;48.322;16.204;2023-06-14T13:45:12;23.20;77.30
25640;DHT22;13497;48.322;16.204;2023-06-14T13:47:38;23.50;77.90
25640;DHT22;13497;48.322;16.204;2023-06-14T13:50:04;23.60;77.20
25640;DHT22;13497;48.322;16.204;2023-06-14T13:52:30;23.90;76.70
25640;DHT22;13497;48.322;16.204;2023-06-14T13:54:57;24.30;76.00
25640;DHT22;13497;48.322;16.204;2023-06-14T13:57:23;24.20;75.60
25640;DHT22;13497;48.322;16.204;2023-06-14T13:59:49;24.10;75.60
25640;DHT22;13497;48.322;16.204;2023-06-14T14:02:15;23.80;75.70
25640;DHT22;13497;48.322;16.204;2023-06-14T14:04:40;23.70;76.40
25640;DHT22;13497;48.322;16.204;2023-06-14T14:07:07;23.90;76.40
25640;DHT22;13497;48.322;16.204;2023-06-14T14:09:36;24.20;76.50
25640;DHT22;13497;48.322;16.204;2023-06-14T14:12:03;24.50;75.20
25640;DHT22;13497;48.322;16.204;2023-06-14T14:14:29;24.50;76.00
25640;DHT22;13497;48.322;16.204;2023-06-14T14:16:55;24.60;74.00
25640;DHT22;13497;48.322;16.204;2023-06-14T14:19:21;25.00;73.50
25640;DHT22;13497;48.322;16.204;2023-06-14T14:21:47;25.30;73.30
25640;DHT22;13497;48.322;16.204;2023-06-14T14:24:13;25.50;73.10
25640;DHT22;13497;48.322;16.204;2023-06-14T14:26:39;25.30;74.10
25640;DHT22;13497;48.322;16.204;2023-06-14T14:29:05;24.90;74.50
25640;DHT22;13497;48.322;16.204;2023-06-14T14:31:31;24.60;75.50
25640;DHT22;13497;48.322;16.204;2023-06-14T14:33:57;24.30;76.00
25640;DHT22;13497;48.322;16.204;2023-06-14T14:36:22;24.20;76.70
25640;DHT22;13497;48.322;16.204;2023-06-14T14:38:48;24.00;77.20
25640;DHT22;13497;48.322;16.204;2023-06-14T14:41:13;24.20;76.80
25640;DHT22;13497;48.322;16.204;2023-06-14T14:43:40;24.30;77.20
25640;DHT22;13497;48.322;16.204;2023-06-14T14:46:05;24.30;75.80
25640;DHT22;13497;48.322;16.204;2023-06-14T14:48:31;24.20;77.00
25640;DHT22;13497;48.322;16.204;2023-06-14T14:50:57;23.90;77.40
25640;DHT22;13497;48.322;16.204;2023-06-14T14:53:22;23.90;77.40
25640;DHT22;13497;48.322;16.204;2023-06-14T14:55:49;24.00;77.50
25640;DHT22;13497;48.322;16.204;2023-06-14T14:58:15;23.70;78.90
25640;DHT22;13497;48.322;16.204;2023-06-14T15:00:47;23.80;78.60
25640;DHT22;13497;48.322;16.204;2023-06-14T15:03:13;24.10;77.90
25640;DHT22;13497;48.322;16.204;2023-06-14T15:05:39;24.10;77.10
25640;DHT22;13497;48.322;16.204;2023-06-14T15:08:05;24.20;77.60
25640;DHT22;13497;48.322;16.204;2023-06-14T15:10:38;24.20;78.10
25640;DHT22;13497;48.322;16.204;2023-06-14T15:13:06;24.00;78.20
25640;DHT22;13497;48.322;16.204;2023-06-14T15:15:32;23.90;78.00
25640;DHT22;13497;48.322;16.204;2023-06-14T15:17:59;23.80;78.90
25640;DHT22;13497;48.322;16.204;2023-06-14T15:20:25;23.80;79.80
25640;DHT22;13497;48.322;16.204;2023-06-14T15:22:51;23.80;79.70
25640;DHT22;13497;48.322;16.204;2023-06-14T15:25:17;23.70;78.60
25640;DHT22;13497;48.322;16.204;2023-06-14T15:27:43;23.60;79.30